Hauptseite
Satellitenwetter 10-Tage PrognosenKlimaSeewetter Wirbelstürme Blitz FlughäfenFAQ Newsletter Über uns
Wetter : Europa Afrika Nordamerika Südamerika Asien Australien-Ozeanien Andere
Sprachen Kontakt

Frankfurt am Main, Deutschland

Flughafen Frankfurt am Main

Breite: 50-03N, Länge: 008-36E, Höhe: 111 m


METAR: EDDF 300320Z VRB01KT CAVOK 14/12 Q1021 NOSIG
TAF: EDDF 300134Z 3001/0106 03006KT CAVOK

Zeit: 05:28 (03:28 UTC)

Beobachtung

Neuester Wetterbericht von vor 8 Minuten, um 03:20 UTC
Wind 1 kt aus unterschiedlichen Richtungen
Temperatur 14°C
Luftfeuchtigkeit 88%
Luftdruck 1021 hPa
Sichtweite 10 km oder mehr
keine Wolken unter 1500 m und keine Kumulonimbus oder Gewitterwolken

Maßeinheiten ändern

Prognose

Neuester Wetterbericht von vor 1 Stunde und 54 Minuten, um 01:34 UTC
Gültige Prognose vom 30 um 01 UTC bis 01 um 06 UTC
Wind 6 kt aus Nord/Nordost
Sichtweite 10 km oder mehr
keine Wolken unter 1500 m und keine Kumulonimbus oder Gewitterwolken
Die Angaben auf diesen Webseiten unterliegen einer Erklärung über den Haftungsausschluss
Wetter : Europa Afrika Nordamerika Südamerika Asien Australien-Ozeanien Andere
Satellitenwetter 10-Tage PrognosenKlimaSeewetter Wirbelstürme Blitz FlughäfenFAQ Sprachen Kontakt Newsletter Über uns